sensor_id;sensor_type;location;lat;lon;timestamp;P1;durP1;ratioP1;P2;durP2;ratioP2
80179;SDS011;69505;52.134;5.438;2023-05-10T00:00:19;19.58;;;8.80;;
80179;SDS011;69505;52.134;5.438;2023-05-10T00:02:46;14.70;;;8.07;;
80179;SDS011;69505;52.134;5.438;2023-05-10T00:05:13;16.92;;;8.48;;
80179;SDS011;69505;52.134;5.438;2023-05-10T00:07:40;14.45;;;8.45;;
80179;SDS011;69505;52.134;5.438;2023-05-10T00:10:07;14.88;;;8.63;;
80179;SDS011;69505;52.134;5.438;2023-05-10T00:12:33;15.25;;;9.02;;
80179;SDS011;69505;52.134;5.438;2023-05-10T00:15:00;15.05;;;8.88;;
80179;SDS011;69505;52.134;5.438;2023-05-10T00:17:27;15.85;;;9.35;;
80179;SDS011;69505;52.134;5.438;2023-05-10T00:19:53;14.35;;;8.82;;
80179;SDS011;69505;52.134;5.438;2023-05-10T00:22:20;18.25;;;9.98;;
80179;SDS011;69505;52.134;5.438;2023-05-10T00:24:47;17.77;;;9.85;;
80179;SDS011;69505;52.134;5.438;2023-05-10T00:27:13;21.38;;;10.68;;
80179;SDS011;69505;52.134;5.438;2023-05-10T00:29:40;17.50;;;10.07;;
80179;SDS011;69505;52.134;5.438;2023-05-10T00:32:07;18.05;;;10.50;;
80179;SDS011;69505;52.134;5.438;2023-05-10T00:34:33;20.95;;;11.80;;
80179;SDS011;69505;52.134;5.438;2023-05-10T00:37:00;23.70;;;11.85;;
80179;SDS011;69505;52.134;5.438;2023-05-10T00:39:27;26.77;;;13.13;;
80179;SDS011;69505;52.134;5.438;2023-05-10T00:41:54;24.10;;;12.82;;
80179;SDS011;69505;52.134;5.438;2023-05-10T00:44:21;24.27;;;13.18;;
80179;SDS011;69505;52.134;5.438;2023-05-10T00:46:47;27.05;;;14.15;;
80179;SDS011;69505;52.134;5.438;2023-05-10T00:49:15;30.90;;;13.93;;
80179;SDS011;69505;52.134;5.438;2023-05-10T00:51:42;26.77;;;14.30;;
80179;SDS011;69505;52.134;5.438;2023-05-10T00:54:11;27.45;;;14.05;;
80179;SDS011;69505;52.134;5.438;2023-05-10T00:56:38;29.10;;;14.32;;
80179;SDS011;69505;52.134;5.438;2023-05-10T00:59:05;31.42;;;15.18;;
80179;SDS011;69505;52.134;5.438;2023-05-10T01:01:32;34.03;;;16.85;;
80179;SDS011;69505;52.134;5.438;2023-05-10T01:03:59;38.05;;;16.65;;
80179;SDS011;69505;52.134;5.438;2023-05-10T01:06:26;34.92;;;16.40;;
80179;SDS011;69505;52.134;5.438;2023-05-10T01:08:53;37.00;;;16.98;;
80179;SDS011;69505;52.134;5.438;2023-05-10T01:11:20;37.22;;;17.15;;
80179;SDS011;69505;52.134;5.438;2023-05-10T01:13:49;34.00;;;17.00;;
80179;SDS011;69505;52.134;5.438;2023-05-10T01:16:20;39.53;;;17.90;;
80179;SDS011;69505;52.134;5.438;2023-05-10T01:18:47;38.63;;;16.70;;
80179;SDS011;69505;52.134;5.438;2023-05-10T01:21:38;35.60;;;16.50;;
80179;SDS011;69505;52.134;5.438;2023-05-10T01:24:21;33.75;;;15.55;;
80179;SDS011;69505;52.134;5.438;2023-05-10T01:27:10;35.58;;;15.57;;
80179;SDS011;69505;52.134;5.438;2023-05-10T01:32:43;34.97;;;15.60;;
80179;SDS011;69505;52.134;5.438;2023-05-10T01:35:25;31.27;;;14.75;;
80179;SDS011;69505;52.134;5.438;2023-05-10T01:38:01;31.23;;;14.82;;
80179;SDS011;69505;52.134;5.438;2023-05-10T01:40:48;33.50;;;14.77;;
80179;SDS011;69505;52.134;5.438;2023-05-10T01:43:28;36.55;;;15.63;;
80179;SDS011;69505;52.134;5.438;2023-05-10T01:46:09;39.28;;;16.60;;
80179;SDS011;69505;52.134;5.438;2023-05-10T01:48:41;37.25;;;15.93;;
80179;SDS011;69505;52.134;5.438;2023-05-10T01:51:19;36.85;;;16.00;;
80179;SDS011;69505;52.134;5.438;2023-05-10T01:53:57;37.17;;;16.30;;
80179;SDS011;69505;52.134;5.438;2023-05-10T01:56:26;37.35;;;16.60;;
80179;SDS011;69505;52.134;5.438;2023-05-10T01:58:55;36.63;;;16.25;;
80179;SDS011;69505;52.134;5.438;2023-05-10T02:01:24;35.25;;;15.20;;
80179;SDS011;69505;52.134;5.438;2023-05-10T02:03:52;39.95;;;16.63;;
80179;SDS011;69505;52.134;5.438;2023-05-10T02:06:21;35.92;;;15.20;;
80179;SDS011;69505;52.134;5.438;2023-05-10T02:08:49;36.67;;;16.40;;
80179;SDS011;69505;52.134;5.438;2023-05-10T02:11:18;36.60;;;16.00;;
80179;SDS011;69505;52.134;5.438;2023-05-10T02:13:47;38.42;;;16.48;;
80179;SDS011;69505;52.134;5.438;2023-05-10T02:16:16;40.53;;;16.38;;
80179;SDS011;69505;52.134;5.438;2023-05-10T02:18:44;36.28;;;16.48;;
80179;SDS011;69505;52.134;5.438;2023-05-10T02:21:11;37.67;;;16.02;;
80179;SDS011;69505;52.134;5.438;2023-05-10T02:23:41;42.35;;;17.80;;
80179;SDS011;69505;52.134;5.438;2023-05-10T02:26:09;39.22;;;17.13;;
80179;SDS011;69505;52.134;5.438;2023-05-10T02:28:38;38.38;;;16.75;;
80179;SDS011;69505;52.134;5.438;2023-05-10T02:31:06;33.92;;;15.77;;
80179;SDS011;69505;52.134;5.438;2023-05-10T02:33:37;36.58;;;15.45;;
80179;SDS011;69505;52.134;5.438;2023-05-10T02:36:06;35.30;;;16.52;;
80179;SDS011;69505;52.134;5.438;2023-05-10T02:38:34;39.90;;;17.13;;
80179;SDS011;69505;52.134;5.438;2023-05-10T02:41:02;43.05;;;19.25;;
80179;SDS011;69505;52.134;5.438;2023-05-10T02:43:32;40.65;;;16.70;;
80179;SDS011;69505;52.134;5.438;2023-05-10T02:45:59;42.08;;;16.10;;
80179;SDS011;69505;52.134;5.438;2023-05-10T02:48:26;38.35;;;16.27;;
80179;SDS011;69505;52.134;5.438;2023-05-10T02:50:54;39.90;;;16.67;;
80179;SDS011;69505;52.134;5.438;2023-05-10T02:53:34;37.15;;;16.70;;
80179;SDS011;69505;52.134;5.438;2023-05-10T02:56:05;43.00;;;16.77;;
80179;SDS011;69505;52.134;5.438;2023-05-10T02:58:39;37.05;;;16.17;;
80179;SDS011;69505;52.134;5.438;2023-05-10T03:01:06;40.47;;;16.50;;
80179;SDS011;69505;52.134;5.438;2023-05-10T03:03:33;42.58;;;17.15;;
80179;SDS011;69505;52.134;5.438;2023-05-10T03:06:00;38.63;;;17.92;;
80179;SDS011;69505;52.134;5.438;2023-05-10T03:08:27;44.08;;;17.15;;
80179;SDS011;69505;52.134;5.438;2023-05-10T03:11:01;48.47;;;18.75;;
80179;SDS011;69505;52.134;5.438;2023-05-10T03:16:42;47.47;;;18.63;;
80179;SDS011;69505;52.134;5.438;2023-05-10T03:19:17;53.30;;;19.48;;
80179;SDS011;69505;52.134;5.438;2023-05-10T03:21:52;51.17;;;18.80;;
80179;SDS011;69505;52.134;5.438;2023-05-10T03:24:22;52.42;;;19.70;;
80179;SDS011;69505;52.134;5.438;2023-05-10T03:26:54;48.08;;;17.95;;
80179;SDS011;69505;52.134;5.438;2023-05-10T03:29:25;50.80;;;19.08;;
80179;SDS011;69505;52.134;5.438;2023-05-10T03:31:52;50.90;;;19.58;;
80179;SDS011;69505;52.134;5.438;2023-05-10T03:34:25;50.80;;;17.33;;
80179;SDS011;69505;52.134;5.438;2023-05-10T03:36:52;56.30;;;19.42;;
80179;SDS011;69505;52.134;5.438;2023-05-10T03:39:18;53.97;;;18.40;;
80179;SDS011;69505;52.134;5.438;2023-05-10T03:41:45;54.97;;;17.92;;
80179;SDS011;69505;52.134;5.438;2023-05-10T03:44:11;50.83;;;16.38;;
80179;SDS011;69505;52.134;5.438;2023-05-10T03:46:38;55.08;;;18.23;;
80179;SDS011;69505;52.134;5.438;2023-05-10T03:49:04;52.00;;;18.80;;
80179;SDS011;69505;52.134;5.438;2023-05-10T03:51:31;51.38;;;18.45;;
80179;SDS011;69505;52.134;5.438;2023-05-10T03:53:58;50.05;;;18.60;;
80179;SDS011;69505;52.134;5.438;2023-05-10T03:56:24;50.30;;;18.45;;
80179;SDS011;69505;52.134;5.438;2023-05-10T03:58:51;53.35;;;18.55;;
80179;SDS011;69505;52.134;5.438;2023-05-10T04:01:18;52.85;;;18.80;;
80179;SDS011;69505;52.134;5.438;2023-05-10T04:03:44;57.35;;;19.30;;
80179;SDS011;69505;52.134;5.438;2023-05-10T04:06:11;59.63;;;19.95;;
80179;SDS011;69505;52.134;5.438;2023-05-10T04:08:38;52.67;;;19.02;;
80179;SDS011;69505;52.134;5.438;2023-05-10T04:11:05;60.58;;;19.65;;
80179;SDS011;69505;52.134;5.438;2023-05-10T04:13:35;55.63;;;18.95;;
80179;SDS011;69505;52.134;5.438;2023-05-10T04:16:03;50.35;;;17.85;;
80179;SDS011;69505;52.134;5.438;2023-05-10T04:18:30;49.63;;;18.42;;
80179;SDS011;69505;52.134;5.438;2023-05-10T04:20:57;49.42;;;17.75;;
80179;SDS011;69505;52.134;5.438;2023-05-10T04:23:24;50.05;;;18.05;;
80179;SDS011;69505;52.134;5.438;2023-05-10T04:25:50;53.55;;;18.23;;
80179;SDS011;69505;52.134;5.438;2023-05-10T04:28:17;47.38;;;16.92;;
80179;SDS011;69505;52.134;5.438;2023-05-10T04:30:43;49.78;;;17.27;;
80179;SDS011;69505;52.134;5.438;2023-05-10T04:33:10;45.38;;;17.05;;
80179;SDS011;69505;52.134;5.438;2023-05-10T04:35:36;47.85;;;18.17;;
80179;SDS011;69505;52.134;5.438;2023-05-10T04:38:03;54.63;;;17.95;;
80179;SDS011;69505;52.134;5.438;2023-05-10T04:40:29;47.95;;;17.05;;
80179;SDS011;69505;52.134;5.438;2023-05-10T04:42:56;47.80;;;16.92;;
80179;SDS011;69505;52.134;5.438;2023-05-10T04:45:22;53.25;;;16.70;;
80179;SDS011;69505;52.134;5.438;2023-05-10T04:47:49;49.83;;;17.58;;
80179;SDS011;69505;52.134;5.438;2023-05-10T04:50:15;46.33;;;16.83;;
80179;SDS011;69505;52.134;5.438;2023-05-10T04:52:42;48.47;;;17.00;;
80179;SDS011;69505;52.134;5.438;2023-05-10T04:55:09;43.95;;;16.63;;
80179;SDS011;69505;52.134;5.438;2023-05-10T04:57:36;49.35;;;16.58;;
80179;SDS011;69505;52.134;5.438;2023-05-10T05:00:02;48.60;;;16.90;;
80179;SDS011;69505;52.134;5.438;2023-05-10T05:02:29;46.97;;;17.00;;
80179;SDS011;69505;52.134;5.438;2023-05-10T05:04:56;53.30;;;17.30;;
80179;SDS011;69505;52.134;5.438;2023-05-10T05:07:24;44.28;;;16.63;;
80179;SDS011;69505;52.134;5.438;2023-05-10T05:09:50;54.58;;;17.70;;
80179;SDS011;69505;52.134;5.438;2023-05-10T05:12:16;50.63;;;17.70;;
80179;SDS011;69505;52.134;5.438;2023-05-10T05:14:43;50.83;;;17.88;;
80179;SDS011;69505;52.134;5.438;2023-05-10T05:17:09;46.53;;;17.40;;
80179;SDS011;69505;52.134;5.438;2023-05-10T05:19:36;53.22;;;17.63;;
80179;SDS011;69505;52.134;5.438;2023-05-10T05:22:03;48.95;;;17.75;;
80179;SDS011;69505;52.134;5.438;2023-05-10T05:24:34;48.90;;;17.85;;
80179;SDS011;69505;52.134;5.438;2023-05-10T05:27:01;57.25;;;18.13;;
80179;SDS011;69505;52.134;5.438;2023-05-10T05:29:28;52.60;;;18.00;;
80179;SDS011;69505;52.134;5.438;2023-05-10T05:31:55;50.08;;;18.52;;
80179;SDS011;69505;52.134;5.438;2023-05-10T05:34:21;55.88;;;20.52;;
80179;SDS011;69505;52.134;5.438;2023-05-10T05:36:48;50.63;;;18.05;;
80179;SDS011;69505;52.134;5.438;2023-05-10T05:39:15;50.35;;;18.48;;
80179;SDS011;69505;52.134;5.438;2023-05-10T05:41:41;50.25;;;19.42;;
80179;SDS011;69505;52.134;5.438;2023-05-10T05:44:08;51.97;;;17.90;;
80179;SDS011;69505;52.134;5.438;2023-05-10T05:46:35;44.50;;;18.40;;
80179;SDS011;69505;52.134;5.438;2023-05-10T05:49:01;45.40;;;17.58;;
80179;SDS011;69505;52.134;5.438;2023-05-10T05:51:28;48.42;;;18.70;;
80179;SDS011;69505;52.134;5.438;2023-05-10T05:53:54;48.97;;;17.60;;
80179;SDS011;69505;52.134;5.438;2023-05-10T05:56:21;45.75;;;17.52;;
80179;SDS011;69505;52.134;5.438;2023-05-10T05:58:50;48.75;;;17.98;;
80179;SDS011;69505;52.134;5.438;2023-05-10T06:01:17;48.47;;;18.70;;
80179;SDS011;69505;52.134;5.438;2023-05-10T06:03:43;40.10;;;16.42;;
80179;SDS011;69505;52.134;5.438;2023-05-10T06:06:10;43.55;;;17.52;;
80179;SDS011;69505;52.134;5.438;2023-05-10T06:08:37;44.13;;;17.45;;
80179;SDS011;69505;52.134;5.438;2023-05-10T06:11:03;42.90;;;16.83;;
80179;SDS011;69505;52.134;5.438;2023-05-10T06:13:30;43.60;;;17.85;;
80179;SDS011;69505;52.134;5.438;2023-05-10T06:15:59;37.17;;;16.27;;
80179;SDS011;69505;52.134;5.438;2023-05-10T06:18:25;39.20;;;14.85;;
80179;SDS011;69505;52.134;5.438;2023-05-10T06:20:52;40.78;;;17.00;;
80179;SDS011;69505;52.134;5.438;2023-05-10T06:23:18;39.08;;;16.10;;
80179;SDS011;69505;52.134;5.438;2023-05-10T06:25:45;41.30;;;17.00;;
80179;SDS011;69505;52.134;5.438;2023-05-10T06:28:12;37.65;;;16.17;;
80179;SDS011;69505;52.134;5.438;2023-05-10T06:30:38;38.40;;;16.48;;
80179;SDS011;69505;52.134;5.438;2023-05-10T06:33:05;39.03;;;15.52;;
80179;SDS011;69505;52.134;5.438;2023-05-10T06:35:31;35.85;;;15.30;;
80179;SDS011;69505;52.134;5.438;2023-05-10T06:37:59;35.50;;;15.52;;
80179;SDS011;69505;52.134;5.438;2023-05-10T06:40:26;33.85;;;14.63;;
80179;SDS011;69505;52.134;5.438;2023-05-10T06:42:52;28.95;;;13.60;;
80179;SDS011;69505;52.134;5.438;2023-05-10T06:45:19;32.45;;;13.95;;
80179;SDS011;69505;52.134;5.438;2023-05-10T06:47:46;27.80;;;13.05;;
80179;SDS011;69505;52.134;5.438;2023-05-10T06:50:12;32.78;;;13.32;;
80179;SDS011;69505;52.134;5.438;2023-05-10T06:52:39;30.77;;;12.65;;
80179;SDS011;69505;52.134;5.438;2023-05-10T06:55:06;26.42;;;12.63;;
80179;SDS011;69505;52.134;5.438;2023-05-10T06:57:33;25.13;;;10.65;;
80179;SDS011;69505;52.134;5.438;2023-05-10T06:59:59;23.30;;;10.70;;
80179;SDS011;69505;52.134;5.438;2023-05-10T07:02:26;20.33;;;9.85;;
80179;SDS011;69505;52.134;5.438;2023-05-10T07:04:53;24.67;;;10.13;;
80179;SDS011;69505;52.134;5.438;2023-05-10T07:07:20;22.55;;;9.57;;
80179;SDS011;69505;52.134;5.438;2023-05-10T07:09:46;17.85;;;8.70;;
80179;SDS011;69505;52.134;5.438;2023-05-10T07:12:13;16.45;;;9.00;;
80179;SDS011;69505;52.134;5.438;2023-05-10T07:14:41;15.95;;;7.38;;
80179;SDS011;69505;52.134;5.438;2023-05-10T07:17:08;19.10;;;8.60;;
80179;SDS011;69505;52.134;5.438;2023-05-10T07:19:35;14.43;;;7.32;;
80179;SDS011;69505;52.134;5.438;2023-05-10T07:22:02;13.60;;;7.43;;
80179;SDS011;69505;52.134;5.438;2023-05-10T07:24:28;17.25;;;7.63;;
80179;SDS011;69505;52.134;5.438;2023-05-10T07:26:55;15.10;;;7.03;;
80179;SDS011;69505;52.134;5.438;2023-05-10T07:29:22;15.15;;;7.72;;
80179;SDS011;69505;52.134;5.438;2023-05-10T07:31:48;13.75;;;6.93;;
80179;SDS011;69505;52.134;5.438;2023-05-10T07:34:15;15.35;;;7.13;;
80179;SDS011;69505;52.134;5.438;2023-05-10T07:36:41;13.35;;;7.05;;
80179;SDS011;69505;52.134;5.438;2023-05-10T07:39:08;12.32;;;6.38;;
80179;SDS011;69505;52.134;5.438;2023-05-10T07:41:36;16.20;;;6.93;;
80179;SDS011;69505;52.134;5.438;2023-05-10T07:44:04;12.50;;;6.40;;
80179;SDS011;69505;52.134;5.438;2023-05-10T07:46:31;12.93;;;6.80;;
80179;SDS011;69505;52.134;5.438;2023-05-10T07:48:57;17.80;;;7.32;;
80179;SDS011;69505;52.134;5.438;2023-05-10T07:51:24;15.93;;;7.30;;
80179;SDS011;69505;52.134;5.438;2023-05-10T07:53:51;17.45;;;7.15;;
80179;SDS011;69505;52.134;5.438;2023-05-10T07:56:27;14.25;;;6.82;;
80179;SDS011;69505;52.134;5.438;2023-05-10T07:58:58;16.08;;;7.15;;
80179;SDS011;69505;52.134;5.438;2023-05-10T08:01:26;14.05;;;7.45;;
80179;SDS011;69505;52.134;5.438;2023-05-10T08:03:55;16.85;;;7.38;;
80179;SDS011;69505;52.134;5.438;2023-05-10T08:06:22;17.95;;;7.35;;
80179;SDS011;69505;52.134;5.438;2023-05-10T08:08:49;12.32;;;6.03;;
80179;SDS011;69505;52.134;5.438;2023-05-10T08:11:16;14.52;;;6.57;;
80179;SDS011;69505;52.134;5.438;2023-05-10T08:13:47;11.68;;;6.03;;
80179;SDS011;69505;52.134;5.438;2023-05-10T08:16:15;13.25;;;6.20;;
80179;SDS011;69505;52.134;5.438;2023-05-10T08:18:43;11.98;;;6.10;;
80179;SDS011;69505;52.134;5.438;2023-05-10T08:21:15;13.65;;;6.80;;
80179;SDS011;69505;52.134;5.438;2023-05-10T08:23:42;15.13;;;7.00;;
80179;SDS011;69505;52.134;5.438;2023-05-10T08:26:10;11.68;;;6.40;;
80179;SDS011;69505;52.134;5.438;2023-05-10T08:28:37;13.88;;;6.55;;
80179;SDS011;69505;52.134;5.438;2023-05-10T08:31:04;12.60;;;6.15;;
80179;SDS011;69505;52.134;5.438;2023-05-10T08:33:31;12.23;;;6.60;;
80179;SDS011;69505;52.134;5.438;2023-05-10T08:35:57;12.25;;;7.35;;
80179;SDS011;69505;52.134;5.438;2023-05-10T08:38:24;12.45;;;6.90;;
80179;SDS011;69505;52.134;5.438;2023-05-10T08:40:51;16.27;;;7.20;;
80179;SDS011;69505;52.134;5.438;2023-05-10T08:43:23;14.73;;;7.15;;
80179;SDS011;69505;52.134;5.438;2023-05-10T08:45:59;15.85;;;6.97;;
80179;SDS011;69505;52.134;5.438;2023-05-10T08:48:29;10.02;;;6.72;;
80179;SDS011;69505;52.134;5.438;2023-05-10T08:50:57;13.85;;;7.53;;
80179;SDS011;69505;52.134;5.438;2023-05-10T08:53:26;14.10;;;7.63;;
80179;SDS011;69505;52.134;5.438;2023-05-10T08:55:55;15.68;;;7.68;;
80179;SDS011;69505;52.134;5.438;2023-05-10T08:58:21;15.07;;;7.85;;
80179;SDS011;69505;52.134;5.438;2023-05-10T09:00:48;14.68;;;7.78;;
80179;SDS011;69505;52.134;5.438;2023-05-10T09:03:17;13.70;;;6.88;;
80179;SDS011;69505;52.134;5.438;2023-05-10T09:05:44;13.93;;;7.13;;
80179;SDS011;69505;52.134;5.438;2023-05-10T09:08:11;10.05;;;6.50;;
80179;SDS011;69505;52.134;5.438;2023-05-10T09:10:39;11.23;;;6.68;;
80179;SDS011;69505;52.134;5.438;2023-05-10T09:13:08;8.50;;;5.68;;
80179;SDS011;69505;52.134;5.438;2023-05-10T09:15:37;9.68;;;5.70;;
80179;SDS011;69505;52.134;5.438;2023-05-10T09:18:04;11.18;;;6.18;;
80179;SDS011;69505;52.134;5.438;2023-05-10T09:20:31;10.98;;;5.72;;
80179;SDS011;69505;52.134;5.438;2023-05-10T09:22:57;11.82;;;6.47;;
80179;SDS011;69505;52.134;5.438;2023-05-10T09:25:24;9.77;;;5.13;;
80179;SDS011;69505;52.134;5.438;2023-05-10T09:27:51;9.63;;;5.35;;
80179;SDS011;69505;52.134;5.438;2023-05-10T09:30:25;8.98;;;4.45;;
80179;SDS011;69505;52.134;5.438;2023-05-10T09:35:23;8.15;;;3.95;;
80179;SDS011;69505;52.134;5.438;2023-05-10T09:37:55;7.05;;;3.22;;
80179;SDS011;69505;52.134;5.438;2023-05-10T09:40:24;5.50;;;3.53;;
80179;SDS011;69505;52.134;5.438;2023-05-10T09:45:29;3.97;;;2.50;;
80179;SDS011;69505;52.134;5.438;2023-05-10T09:47:57;5.30;;;2.72;;
80179;SDS011;69505;52.134;5.438;2023-05-10T09:50:25;4.25;;;2.60;;
80179;SDS011;69505;52.134;5.438;2023-05-10T09:55:39;3.40;;;2.35;;
80179;SDS011;69505;52.134;5.438;2023-05-10T09:58:07;4.70;;;2.20;;
80179;SDS011;69505;52.134;5.438;2023-05-10T10:00:37;5.18;;;2.25;;
80179;SDS011;69505;52.134;5.438;2023-05-10T10:03:15;4.85;;;3.00;;
80179;SDS011;69505;52.134;5.438;2023-05-10T10:05:43;6.65;;;3.53;;
80179;SDS011;69505;52.134;5.438;2023-05-10T10:08:11;5.05;;;3.00;;
80179;SDS011;69505;52.134;5.438;2023-05-10T10:10:39;6.03;;;3.30;;
80179;SDS011;69505;52.134;5.438;2023-05-10T10:13:11;7.15;;;3.55;;
80179;SDS011;69505;52.134;5.438;2023-05-10T10:15:38;6.50;;;3.53;;
80179;SDS011;69505;52.134;5.438;2023-05-10T10:18:05;5.63;;;3.60;;
80179;SDS011;69505;52.134;5.438;2023-05-10T10:20:35;5.45;;;3.38;;
80179;SDS011;69505;52.134;5.438;2023-05-10T10:23:03;6.05;;;3.83;;
80179;SDS011;69505;52.134;5.438;2023-05-10T10:25:31;8.20;;;3.60;;
80179;SDS011;69505;52.134;5.438;2023-05-10T10:28:01;6.30;;;3.30;;
80179;SDS011;69505;52.134;5.438;2023-05-10T10:30:48;6.88;;;3.92;;
80179;SDS011;69505;52.134;5.438;2023-05-10T10:36:02;5.47;;;3.20;;
80179;SDS011;69505;52.134;5.438;2023-05-10T10:38:37;7.68;;;3.90;;
80179;SDS011;69505;52.134;5.438;2023-05-10T10:52:30;7.22;;;4.20;;
80179;SDS011;69505;52.134;5.438;2023-05-10T10:55:04;6.10;;;4.10;;
80179;SDS011;69505;52.134;5.438;2023-05-10T10:57:42;6.40;;;3.80;;
80179;SDS011;69505;52.134;5.438;2023-05-10T11:00:32;8.38;;;4.40;;
80179;SDS011;69505;52.134;5.438;2023-05-10T11:05:41;9.85;;;4.43;;
80179;SDS011;69505;52.134;5.438;2023-05-10T11:08:10;6.32;;;3.78;;
80179;SDS011;69505;52.134;5.438;2023-05-10T11:10:38;5.82;;;3.70;;
80179;SDS011;69505;52.134;5.438;2023-05-10T11:13:06;5.78;;;3.20;;
80179;SDS011;69505;52.134;5.438;2023-05-10T11:18:16;5.63;;;3.67;;
80179;SDS011;69505;52.134;5.438;2023-05-10T11:20:43;6.47;;;3.65;;
80179;SDS011;69505;52.134;5.438;2023-05-10T11:23:13;5.55;;;3.67;;
80179;SDS011;69505;52.134;5.438;2023-05-10T11:25:42;7.05;;;3.45;;
80179;SDS011;69505;52.134;5.438;2023-05-10T11:28:13;6.55;;;3.40;;
80179;SDS011;69505;52.134;5.438;2023-05-10T11:30:40;7.30;;;3.67;;
80179;SDS011;69505;52.134;5.438;2023-05-10T11:33:11;5.95;;;3.65;;
80179;SDS011;69505;52.134;5.438;2023-05-10T11:35:42;6.75;;;3.55;;
80179;SDS011;69505;52.134;5.438;2023-05-10T11:38:09;6.75;;;3.53;;
80179;SDS011;69505;52.134;5.438;2023-05-10T11:40:37;6.53;;;3.45;;
80179;SDS011;69505;52.134;5.438;2023-05-10T11:43:05;7.70;;;3.88;;
80179;SDS011;69505;52.134;5.438;2023-05-10T11:45:32;8.82;;;3.75;;
80179;SDS011;69505;52.134;5.438;2023-05-10T11:47:59;4.90;;;3.63;;
80179;SDS011;69505;52.134;5.438;2023-05-10T11:50:27;9.02;;;3.97;;
80179;SDS011;69505;52.134;5.438;2023-05-10T11:52:57;7.80;;;3.97;;
80179;SDS011;69505;52.134;5.438;2023-05-10T11:55:24;5.75;;;3.22;;
80179;SDS011;69505;52.134;5.438;2023-05-10T11:57:52;5.97;;;3.10;;
80179;SDS011;69505;52.134;5.438;2023-05-10T12:00:19;5.85;;;3.25;;
80179;SDS011;69505;52.134;5.438;2023-05-10T12:02:46;6.72;;;2.65;;
80179;SDS011;69505;52.134;5.438;2023-05-10T12:05:13;5.32;;;2.65;;
80179;SDS011;69505;52.134;5.438;2023-05-10T12:07:40;5.20;;;2.58;;
80179;SDS011;69505;52.134;5.438;2023-05-10T12:10:08;5.78;;;2.70;;
80179;SDS011;69505;52.134;5.438;2023-05-10T12:12:39;5.88;;;3.03;;
80179;SDS011;69505;52.134;5.438;2023-05-10T12:15:11;4.43;;;2.72;;
80179;SDS011;69505;52.134;5.438;2023-05-10T12:17:43;5.25;;;2.35;;
80179;SDS011;69505;52.134;5.438;2023-05-10T12:22:45;6.80;;;1.98;;
80179;SDS011;69505;52.134;5.438;2023-05-10T12:25:16;5.10;;;2.00;;
80179;SDS011;69505;52.134;5.438;2023-05-10T12:27:51;4.40;;;1.63;;
80179;SDS011;69505;52.134;5.438;2023-05-10T12:30:36;6.18;;;1.67;;
80179;SDS011;69505;52.134;5.438;2023-05-10T12:33:10;4.55;;;1.95;;
80179;SDS011;69505;52.134;5.438;2023-05-10T12:35:52;4.90;;;1.83;;
80179;SDS011;69505;52.134;5.438;2023-05-10T12:38:29;3.55;;;1.95;;
80179;SDS011;69505;52.134;5.438;2023-05-10T12:41:12;4.35;;;2.15;;
80179;SDS011;69505;52.134;5.438;2023-05-10T12:43:39;2.63;;;1.75;;
80179;SDS011;69505;52.134;5.438;2023-05-10T12:46:07;3.35;;;1.55;;
80179;SDS011;69505;52.134;5.438;2023-05-10T12:48:35;2.80;;;1.23;;
80179;SDS011;69505;52.134;5.438;2023-05-10T12:51:02;3.63;;;1.80;;
80179;SDS011;69505;52.134;5.438;2023-05-10T12:53:30;4.20;;;2.10;;
80179;SDS011;69505;52.134;5.438;2023-05-10T12:55:57;4.20;;;2.05;;
80179;SDS011;69505;52.134;5.438;2023-05-10T12:58:23;5.63;;;2.05;;
80179;SDS011;69505;52.134;5.438;2023-05-10T13:01:00;3.08;;;1.95;;
80179;SDS011;69505;52.134;5.438;2023-05-10T13:03:27;4.07;;;1.90;;
80179;SDS011;69505;52.134;5.438;2023-05-10T13:05:54;7.28;;;1.70;;
80179;SDS011;69505;52.134;5.438;2023-05-10T13:08:20;4.32;;;1.58;;
80179;SDS011;69505;52.134;5.438;2023-05-10T13:10:47;4.25;;;2.03;;
80179;SDS011;69505;52.134;5.438;2023-05-10T13:13:14;4.63;;;2.15;;
80179;SDS011;69505;52.134;5.438;2023-05-10T13:15:41;3.95;;;2.00;;
80179;SDS011;69505;52.134;5.438;2023-05-10T13:18:07;3.00;;;1.55;;
80179;SDS011;69505;52.134;5.438;2023-05-10T13:20:34;4.03;;;2.00;;
80179;SDS011;69505;52.134;5.438;2023-05-10T13:23:01;4.43;;;2.67;;
80179;SDS011;69505;52.134;5.438;2023-05-10T13:25:28;4.30;;;2.72;;
80179;SDS011;69505;52.134;5.438;2023-05-10T13:27:56;5.60;;;3.33;;
80179;SDS011;69505;52.134;5.438;2023-05-10T13:30:22;5.70;;;3.33;;
80179;SDS011;69505;52.134;5.438;2023-05-10T13:32:50;7.72;;;4.05;;
80179;SDS011;69505;52.134;5.438;2023-05-10T13:35:16;6.68;;;3.92;;
80179;SDS011;69505;52.134;5.438;2023-05-10T13:37:43;8.57;;;3.83;;
80179;SDS011;69505;52.134;5.438;2023-05-10T13:40:10;7.60;;;3.83;;
80179;SDS011;69505;52.134;5.438;2023-05-10T13:42:36;7.38;;;4.05;;
80179;SDS011;69505;52.134;5.438;2023-05-10T13:45:03;9.02;;;3.72;;
80179;SDS011;69505;52.134;5.438;2023-05-10T13:47:30;6.53;;;3.58;;
80179;SDS011;69505;52.134;5.438;2023-05-10T13:49:57;7.63;;;4.03;;
80179;SDS011;69505;52.134;5.438;2023-05-10T13:52:24;5.53;;;3.60;;
80179;SDS011;69505;52.134;5.438;2023-05-10T13:54:51;7.35;;;3.50;;
80179;SDS011;69505;52.134;5.438;2023-05-10T13:57:21;6.68;;;3.33;;
80179;SDS011;69505;52.134;5.438;2023-05-10T13:59:48;6.38;;;3.53;;
80179;SDS011;69505;52.134;5.438;2023-05-10T14:02:14;6.78;;;3.40;;
80179;SDS011;69505;52.134;5.438;2023-05-10T14:04:41;8.07;;;3.40;;
80179;SDS011;69505;52.134;5.438;2023-05-10T14:07:07;7.07;;;3.80;;
80179;SDS011;69505;52.134;5.438;2023-05-10T14:09:34;6.90;;;3.50;;
80179;SDS011;69505;52.134;5.438;2023-05-10T14:12:00;7.38;;;3.85;;
80179;SDS011;69505;52.134;5.438;2023-05-10T14:14:28;6.90;;;3.40;;
80179;SDS011;69505;52.134;5.438;2023-05-10T14:16:55;7.30;;;3.35;;
80179;SDS011;69505;52.134;5.438;2023-05-10T14:19:22;5.65;;;3.47;;
80179;SDS011;69505;52.134;5.438;2023-05-10T14:21:48;8.68;;;4.10;;
80179;SDS011;69505;52.134;5.438;2023-05-10T14:24:15;6.15;;;3.45;;
80179;SDS011;69505;52.134;5.438;2023-05-10T14:26:41;7.25;;;3.35;;
80179;SDS011;69505;52.134;5.438;2023-05-10T14:29:08;7.68;;;3.42;;
80179;SDS011;69505;52.134;5.438;2023-05-10T14:31:37;7.15;;;4.20;;
80179;SDS011;69505;52.134;5.438;2023-05-10T14:34:04;8.18;;;3.60;;
80179;SDS011;69505;52.134;5.438;2023-05-10T14:36:31;7.93;;;3.80;;
80179;SDS011;69505;52.134;5.438;2023-05-10T14:38:58;8.02;;;3.70;;
80179;SDS011;69505;52.134;5.438;2023-05-10T14:41:25;5.95;;;3.55;;
80179;SDS011;69505;52.134;5.438;2023-05-10T14:43:52;6.00;;;3.88;;
80179;SDS011;69505;52.134;5.438;2023-05-10T14:46:18;7.80;;;4.03;;
80179;SDS011;69505;52.134;5.438;2023-05-10T14:48:46;7.13;;;3.33;;
80179;SDS011;69505;52.134;5.438;2023-05-10T14:51:12;7.47;;;3.92;;
80179;SDS011;69505;52.134;5.438;2023-05-10T14:53:39;8.88;;;4.15;;
80179;SDS011;69505;52.134;5.438;2023-05-10T14:56:05;8.80;;;4.63;;
80179;SDS011;69505;52.134;5.438;2023-05-10T14:58:33;8.05;;;4.10;;
80179;SDS011;69505;52.134;5.438;2023-05-10T15:00:59;8.45;;;4.18;;
80179;SDS011;69505;52.134;5.438;2023-05-10T15:03:26;8.15;;;4.72;;
80179;SDS011;69505;52.134;5.438;2023-05-10T15:05:54;9.07;;;4.43;;
80179;SDS011;69505;52.134;5.438;2023-05-10T15:08:22;8.45;;;4.70;;
80179;SDS011;69505;52.134;5.438;2023-05-10T15:10:50;9.25;;;4.50;;
80179;SDS011;69505;52.134;5.438;2023-05-10T15:13:17;9.25;;;4.55;;
80179;SDS011;69505;52.134;5.438;2023-05-10T15:15:44;10.63;;;4.82;;